Time;durP1;ratioP1;P1;durP2;ratioP2;P2;SDS_P1;SDS_P2;PMS_P1;PMS_P2;Temp;Humidity;BMP_temperature;BMP_pressure;BME280_temperature;BME280_humidity;BME280_pressure;Samples;Min_cycle;Max_cycle;Signal;HPM_P1;HPM_P2
2022/10/17 00:02:46;;;;;;;;;;;14.70;99.90;;;;;;12557410;28;19929;-36
2022/10/17 00:08:47;;;;;;;;;;;14.90;99.90;;;;;;12559723;28;20347;-37
2022/10/17 00:14:49;;;;;;;;;;;15.00;99.90;;;;;;12535247;28;19924;-36
2022/10/17 00:20:51;;;;;;;;;;;15.20;99.90;;;;;;12541404;28;19925;-37
2022/10/17 00:26:53;;;;;;;;;;;15.30;99.90;;;;;;12555062;28;19925;-37
2022/10/17 00:32:55;;;;;;;;;;;15.30;99.90;;;;;;12556710;28;19924;-37
2022/10/17 00:38:57;;;;;;;;;;;15.30;99.90;;;;;;12554351;28;20900;-37
2022/10/17 00:45:03;;;;;;;;;;;15.30;99.90;;;;;;12538510;28;19924;-37
2022/10/17 00:51:05;;;;;;;;;;;15.30;99.90;;;;;;12527413;28;19925;-36
2022/10/17 00:57:07;;;;;;;;;;;15.30;99.90;;;;;;12527124;28;19947;-36
2022/10/17 01:03:09;;;;;;;;;;;15.40;99.90;;;;;;12543279;28;19932;-37
2022/10/17 01:09:11;;;;;;;;;;;15.30;99.90;;;;;;12535164;28;19997;-37
2022/10/17 01:15:20;;;;;;;;;;;15.40;99.90;;;;;;12536832;28;19925;-37
2022/10/17 01:21:24;;;;;;;;;;;15.40;99.90;;;;;;12548794;28;19948;-37
2022/10/17 01:27:45;;;;;;;;;;;15.40;99.90;;;;;;12536187;28;20288;-36
2022/10/17 01:33:52;;;;;;;;;;;15.40;99.90;;;;;;12525619;28;19925;-37
2022/10/17 01:40:09;;;;;;;;;;;15.40;99.90;;;;;;12548151;28;19936;-36
2022/10/17 01:46:17;;;;;;;;;;;15.40;99.90;;;;;;12538056;28;19925;-38
2022/10/17 01:52:42;;;;;;;;;;;15.40;99.90;;;;;;12555405;28;20384;-37
2022/10/17 01:58:52;;;;;;;;;;;15.40;99.90;;;;;;12547126;28;20221;-37
2022/10/17 02:04:55;;;;;;;;;;;15.40;99.90;;;;;;12547338;28;19977;-37
2022/10/17 02:11:01;;;;;;;;;;;15.40;99.90;;;;;;12546309;28;20285;-37
2022/10/17 02:17:15;;;;;;;;;;;15.40;99.90;;;;;;12552323;28;19974;-36
2022/10/17 02:23:25;;;;;;;;;;;15.50;99.90;;;;;;12550861;28;19929;-36
2022/10/17 02:29:31;;;;;;;;;;;15.50;99.90;;;;;;12542203;28;19929;-36
2022/10/17 02:35:35;;;;;;;;;;;15.50;99.90;;;;;;12546587;28;19959;-37
2022/10/17 02:41:39;;;;;;;;;;;15.60;99.90;;;;;;12551106;28;19929;-37
2022/10/17 02:47:47;;;;;;;;;;;15.60;99.90;;;;;;12554799;28;19928;-37
2022/10/17 02:54:24;;;;;;;;;;;15.70;99.90;;;;;;12541801;28;19925;-36
2022/10/17 03:00:27;;;;;;;;;;;15.80;99.90;;;;;;12452987;28;19932;-37
2022/10/17 03:06:29;;;;;;;;;;;15.80;99.90;;;;;;12537936;28;20304;-37
2022/10/17 03:12:31;;;;;;;;;;;15.70;99.90;;;;;;12546403;28;19939;-36
2022/10/17 03:18:33;;;;;;;;;;;15.80;99.90;;;;;;12557920;28;19932;-36
2022/10/17 03:24:35;;;;;;;;;;;15.90;99.90;;;;;;12563560;28;20015;-37
2022/10/17 03:30:37;;;;;;;;;;;15.80;99.90;;;;;;12568842;28;19932;-37
2022/10/17 03:36:39;;;;;;;;;;;15.90;99.90;;;;;;12552837;28;20342;-37
2022/10/17 03:42:40;;;;;;;;;;;15.90;99.90;;;;;;12549680;28;19928;-37
2022/10/17 03:48:42;;;;;;;;;;;16.00;99.90;;;;;;12551402;28;20059;-37
2022/10/17 03:54:44;;;;;;;;;;;16.00;99.90;;;;;;12548497;28;20324;-37
2022/10/17 04:00:46;;;;;;;;;;;16.00;99.90;;;;;;12557939;28;19936;-36
2022/10/17 04:06:48;;;;;;;;;;;16.10;99.90;;;;;;12549693;28;19925;-37
2022/10/17 04:12:50;;;;;;;;;;;16.00;99.90;;;;;;12552223;28;20265;-37
2022/10/17 04:18:54;;;;;;;;;;;15.90;99.90;;;;;;12549133;28;20074;-36
2022/10/17 04:24:56;;;;;;;;;;;15.90;99.90;;;;;;12555087;28;20469;-37
2022/10/17 04:30:58;;;;;;;;;;;16.00;99.90;;;;;;12545297;28;19943;-37
2022/10/17 04:37:01;;;;;;;;;;;16.10;99.90;;;;;;12538519;28;20018;-37
2022/10/17 04:43:03;;;;;;;;;;;16.10;99.90;;;;;;12536581;28;20439;-37
2022/10/17 04:49:04;;;;;;;;;;;16.20;99.90;;;;;;12558343;28;19929;-37
2022/10/17 04:55:06;;;;;;;;;;;16.20;99.90;;;;;;12560655;28;19924;-37
2022/10/17 05:01:15;;;;;;;;;;;16.30;99.90;;;;;;12541692;28;19933;-37
2022/10/17 05:07:17;;;;;;;;;;;16.30;99.90;;;;;;12549108;28;19979;-37
2022/10/17 05:13:19;;;;;;;;;;;16.30;99.90;;;;;;12548812;28;19932;-36
2022/10/17 05:19:21;;;;;;;;;;;16.30;99.90;;;;;;12550019;28;19931;-37
2022/10/17 05:25:23;;;;;;;;;;;16.30;99.90;;;;;;12541046;28;19932;-36
2022/10/17 05:31:24;;;;;;;;;;;16.30;99.90;;;;;;12540036;28;20133;-36
2022/10/17 05:37:27;;;;;;;;;;;16.20;99.90;;;;;;12536375;28;20300;-37
2022/10/17 05:43:30;;;;;;;;;;;16.30;99.90;;;;;;12560461;28;19924;-37
2022/10/17 05:49:32;;;;;;;;;;;16.50;99.90;;;;;;12553319;28;19925;-37
2022/10/17 05:55:57;;;;;;;;;;;16.50;99.90;;;;;;12546997;28;19925;-36
2022/10/17 06:01:59;;;;;;;;;;;16.40;99.90;;;;;;12537897;28;19925;-37
2022/10/17 06:08:01;;;;;;;;;;;16.30;99.90;;;;;;12547690;28;19929;-37
2022/10/17 06:14:03;;;;;;;;;;;16.30;99.90;;;;;;12550572;28;20030;-37
2022/10/17 06:20:05;;;;;;;;;;;16.30;99.90;;;;;;12547778;28;19933;-37
2022/10/17 06:26:07;;;;;;;;;;;16.30;99.90;;;;;;12525955;28;20312;-37
2022/10/17 06:32:09;;;;;;;;;;;16.40;99.90;;;;;;12557325;28;19928;-37
2022/10/17 06:38:15;;;;;;;;;;;16.50;99.90;;;;;;12553263;28;19924;-37
2022/10/17 06:44:17;;;;;;;;;;;16.50;99.90;;;;;;12553009;28;19925;-37
2022/10/17 06:50:19;;;;;;;;;;;16.50;99.90;;;;;;12559261;28;20276;-37
2022/10/17 06:56:21;;;;;;;;;;;16.60;99.90;;;;;;12556691;28;19977;-36
2022/10/17 07:02:23;;;;;;;;;;;16.60;99.90;;;;;;12542350;28;19935;-37
2022/10/17 07:08:25;;;;;;;;;;;16.40;99.90;;;;;;12551906;28;19924;-36
2022/10/17 07:14:30;;;;;;;;;;;16.00;99.90;;;;;;12551771;28;19931;-36
2022/10/17 07:20:33;;;;;;;;;;;16.00;99.90;;;;;;12552226;28;19929;-36
2022/10/17 07:26:35;;;;;;;;;;;15.90;99.90;;;;;;12550216;28;19929;-37
2022/10/17 07:32:37;;;;;;;;;;;16.10;99.90;;;;;;12559274;28;20468;-36
2022/10/17 07:38:39;;;;;;;;;;;16.40;99.90;;;;;;12541610;28;20307;-36
2022/10/17 07:44:41;;;;;;;;;;;16.60;99.90;;;;;;12558195;28;19999;-36
2022/10/17 07:50:43;;;;;;;;;;;16.70;99.90;;;;;;12567634;28;19925;-37
2022/10/17 07:56:49;;;;;;;;;;;16.90;99.90;;;;;;12547038;28;20392;-37
2022/10/17 08:02:51;;;;;;;;;;;17.00;99.90;;;;;;12543586;28;19929;-37
2022/10/17 08:08:54;;;;;;;;;;;17.00;99.90;;;;;;12557136;28;20021;-36
2022/10/17 08:14:56;;;;;;;;;;;17.20;99.90;;;;;;12543361;28;20338;-36
2022/10/17 08:20:59;;;;;;;;;;;17.30;99.90;;;;;;12550422;28;19928;-37
2022/10/17 08:27:01;;;;;;;;;;;17.30;99.90;;;;;;12549639;28;19933;-36
2022/10/17 08:33:03;;;;;;;;;;;17.50;99.90;;;;;;12555159;28;19928;-37
2022/10/17 08:39:04;;;;;;;;;;;17.60;99.90;;;;;;12542848;28;20300;-36
2022/10/17 08:45:29;;;;;;;;;;;17.70;99.90;;;;;;12539838;28;19928;-37
2022/10/17 08:51:32;;;;;;;;;;;17.80;99.90;;;;;;12554425;28;19928;-36
2022/10/17 08:57:34;;;;;;;;;;;17.80;99.90;;;;;;12553255;28;20019;-37
2022/10/17 09:03:55;;;;;;;;;;;18.00;99.90;;;;;;12544403;28;19928;-37
2022/10/17 09:10:08;;;;;;;;;;;18.30;99.90;;;;;;12542406;28;19932;-37
2022/10/17 09:16:29;;;;;;;;;;;18.50;99.90;;;;;;12555925;28;20330;-37
2022/10/17 09:22:41;;;;;;;;;;;18.60;99.90;;;;;;12542313;28;20345;-37
2022/10/17 09:28:45;;;;;;;;;;;18.50;99.90;;;;;;12545631;28;19936;-37
2022/10/17 09:34:47;;;;;;;;;;;18.50;99.90;;;;;;12529127;28;19925;-37
2022/10/17 09:40:57;;;;;;;;;;;18.70;99.90;;;;;;12550919;28;19935;-37
2022/10/17 09:46:59;;;;;;;;;;;18.90;99.90;;;;;;12554512;28;19933;-37
2022/10/17 09:53:33;;;;;;;;;;;19.10;99.90;;;;;;12533748;28;19925;-37
2022/10/17 09:59:36;;;;;;;;;;;19.40;99.90;;;;;;12535910;28;19929;-37
2022/10/17 10:05:39;;;;;;;;;;;19.70;99.90;;;;;;12567245;28;20394;-37
2022/10/17 10:11:51;;;;;;;;;;;20.00;99.90;;;;;;12552284;28;19924;-37
2022/10/17 10:17:53;;;;;;;;;;;20.10;99.90;;;;;;12559407;28;19929;-37
2022/10/17 10:24:13;;;;;;;;;;;20.30;99.90;;;;;;12553749;28;19968;-37
2022/10/17 10:30:20;;;;;;;;;;;20.40;99.90;;;;;;12550089;28;20063;-37
2022/10/17 10:36:22;;;;;;;;;;;20.70;99.90;;;;;;12542537;28;19924;-37
2022/10/17 10:42:25;;;;;;;;;;;20.80;99.90;;;;;;12551096;28;19925;-37
2022/10/17 10:48:36;;;;;;;;;;;20.90;99.90;;;;;;12557862;28;19932;-37
2022/10/17 10:54:40;;;;;;;;;;;21.30;99.90;;;;;;12555660;28;19929;-37
2022/10/17 11:00:42;;;;;;;;;;;21.60;99.90;;;;;;12556577;28;20058;-37
2022/10/17 11:06:45;;;;;;;;;;;21.70;99.90;;;;;;12556827;28;19928;-36
2022/10/17 11:12:46;;;;;;;;;;;21.50;99.90;;;;;;12552260;28;19933;-37
2022/10/17 11:18:56;;;;;;;;;;;21.40;99.90;;;;;;12553625;28;20147;-37
2022/10/17 11:25:00;;;;;;;;;;;21.30;99.90;;;;;;12548847;28;19925;-37
2022/10/17 11:31:04;;;;;;;;;;;21.20;99.90;;;;;;12551675;28;20039;-37
2022/10/17 11:37:13;;;;;;;;;;;21.00;99.90;;;;;;12552452;28;19924;-38
2022/10/17 11:43:15;;;;;;;;;;;20.90;99.90;;;;;;12551818;28;19960;-38
2022/10/17 11:49:23;;;;;;;;;;;20.80;99.90;;;;;;12551748;28;20292;-37
2022/10/17 11:55:27;;;;;;;;;;;20.80;99.90;;;;;;12556330;28;19925;-37
2022/10/17 12:01:33;;;;;;;;;;;20.80;99.90;;;;;;12548905;28;20484;-37
2022/10/17 12:07:42;;;;;;;;;;;20.70;99.90;;;;;;12556738;28;20026;-37
2022/10/17 12:13:50;;;;;;;;;;;20.70;99.90;;;;;;12556362;28;19925;-37
2022/10/17 12:19:53;;;;;;;;;;;20.70;99.90;;;;;;12554108;28;19998;-37
2022/10/17 12:26:00;;;;;;;;;;;20.70;99.90;;;;;;12550620;28;19935;-37
2022/10/17 12:32:09;;;;;;;;;;;20.60;99.90;;;;;;12559582;28;20008;-37
2022/10/17 12:38:15;;;;;;;;;;;20.50;99.90;;;;;;12551176;28;19933;-37
2022/10/17 12:44:20;;;;;;;;;;;20.30;99.90;;;;;;12551436;28;20372;-37
2022/10/17 12:50:51;;;;;;;;;;;20.30;99.90;;;;;;12552363;28;20023;-37
2022/10/17 12:56:52;;;;;;;;;;;20.30;99.90;;;;;;12545489;28;19925;-37
2022/10/17 13:02:56;;;;;;;;;;;20.20;99.90;;;;;;12549839;28;19939;-37
2022/10/17 13:09:00;;;;;;;;;;;20.10;99.90;;;;;;12555232;28;19931;-37
2022/10/17 13:15:06;;;;;;;;;;;20.00;99.90;;;;;;12545699;28;19955;-37
2022/10/17 13:21:15;;;;;;;;;;;19.90;99.90;;;;;;12546979;28;20253;-37
2022/10/17 13:27:35;;;;;;;;;;;19.90;99.90;;;;;;12548934;28;20288;-36
2022/10/17 13:33:38;;;;;;;;;;;19.90;99.90;;;;;;12534062;28;19948;-37
2022/10/17 13:39:41;;;;;;;;;;;19.90;99.90;;;;;;12549058;28;19929;-37
2022/10/17 13:46:02;;;;;;;;;;;19.90;99.90;;;;;;12552491;28;19928;-37
2022/10/17 13:52:26;;;;;;;;;;;19.90;99.90;;;;;;12534600;28;19924;-37
2022/10/17 13:58:30;;;;;;;;;;;19.90;99.90;;;;;;12545780;28;20379;-37
2022/10/17 14:04:32;;;;;;;;;;;19.80;99.90;;;;;;12556876;28;19924;-37
2022/10/17 14:10:54;;;;;;;;;;;19.90;99.90;;;;;;12549495;28;19925;-37
2022/10/17 14:16:55;;;;;;;;;;;19.80;99.90;;;;;;12553887;28;20325;-37
2022/10/17 14:22:57;;;;;;;;;;;19.70;99.90;;;;;;12545577;28;19977;-36
2022/10/17 14:29:22;;;;;;;;;;;19.70;99.90;;;;;;12554165;28;20404;-37
2022/10/17 14:35:24;;;;;;;;;;;19.70;99.90;;;;;;12558937;28;19928;-37
2022/10/17 14:41:43;;;;;;;;;;;19.80;99.90;;;;;;12561326;28;19933;-38
2022/10/17 14:47:48;;;;;;;;;;;19.80;99.90;;;;;;12535246;28;19928;-37
2022/10/17 14:54:09;;;;;;;;;;;19.80;99.90;;;;;;12558502;28;19924;-37
2022/10/17 15:00:14;;;;;;;;;;;19.70;99.90;;;;;;12559152;28;19994;-37
2022/10/17 15:06:18;;;;;;;;;;;19.50;99.90;;;;;;12556483;28;19924;-38
2022/10/17 15:12:23;;;;;;;;;;;19.40;99.90;;;;;;12550406;28;19928;-37
2022/10/17 15:18:26;;;;;;;;;;;19.30;99.90;;;;;;12541679;28;20023;-37
2022/10/17 15:24:27;;;;;;;;;;;19.30;99.90;;;;;;12556023;28;19925;-37
2022/10/17 15:30:31;;;;;;;;;;;19.30;99.90;;;;;;12561731;28;19928;-38
2022/10/17 15:36:36;;;;;;;;;;;19.20;99.90;;;;;;12545433;28;19925;-37
2022/10/17 15:42:38;;;;;;;;;;;19.20;99.90;;;;;;12555157;28;19925;-37
2022/10/17 15:48:40;;;;;;;;;;;19.10;99.90;;;;;;12552191;28;19997;-36
2022/10/17 15:54:41;;;;;;;;;;;19.10;99.90;;;;;;12546237;28;19936;-37
2022/10/17 16:00:44;;;;;;;;;;;19.00;99.90;;;;;;12552973;28;20003;-37
2022/10/17 16:06:46;;;;;;;;;;;19.00;99.90;;;;;;12561963;28;19929;-38
2022/10/17 16:12:48;;;;;;;;;;;18.90;99.90;;;;;;12548592;28;19974;-37
2022/10/17 16:18:51;;;;;;;;;;;18.90;99.90;;;;;;12547329;28;20288;-37
2022/10/17 16:24:57;;;;;;;;;;;18.80;99.90;;;;;;12562069;28;19925;-37
2022/10/17 16:30:59;;;;;;;;;;;18.80;99.90;;;;;;12554365;28;20019;-37
2022/10/17 16:37:01;;;;;;;;;;;18.80;99.90;;;;;;12540664;28;19925;-37
2022/10/17 16:43:02;;;;;;;;;;;18.70;99.90;;;;;;12544832;28;19931;-37
2022/10/17 16:49:05;;;;;;;;;;;18.60;99.90;;;;;;12541822;28;19943;-37
2022/10/17 16:55:08;;;;;;;;;;;18.60;99.90;;;;;;12527007;28;20190;-38
2022/10/17 17:01:12;;;;;;;;;;;18.50;99.90;;;;;;12547565;28;19929;-37
2022/10/17 17:07:16;;;;;;;;;;;18.40;99.90;;;;;;12554427;28;19974;-37
2022/10/17 17:13:18;;;;;;;;;;;18.40;99.90;;;;;;12556552;28;19931;-37
2022/10/17 17:19:20;;;;;;;;;;;18.30;99.90;;;;;;12552923;28;20370;-37
2022/10/17 17:25:21;;;;;;;;;;;18.30;99.90;;;;;;12548402;28;19925;-37
2022/10/17 17:31:25;;;;;;;;;;;18.20;99.90;;;;;;12555754;28;19928;-37
2022/10/17 17:37:27;;;;;;;;;;;18.20;99.90;;;;;;12549353;28;19929;-37
2022/10/17 17:43:29;;;;;;;;;;;18.10;99.90;;;;;;12530207;28;19986;-36
2022/10/17 17:49:31;;;;;;;;;;;18.00;99.90;;;;;;12552571;28;19928;-37
2022/10/17 17:55:33;;;;;;;;;;;17.90;99.90;;;;;;12537597;28;20277;-37
2022/10/17 18:01:38;;;;;;;;;;;17.90;99.90;;;;;;12537320;28;20365;-37
2022/10/17 18:07:39;;;;;;;;;;;17.90;99.90;;;;;;12550857;28;19928;-37
2022/10/17 18:13:41;;;;;;;;;;;17.70;99.90;;;;;;12551945;28;20426;-36
2022/10/17 18:19:43;;;;;;;;;;;17.70;99.90;;;;;;12537831;28;19924;-37
2022/10/17 18:25:52;;;;;;;;;;;17.60;99.90;;;;;;12555790;28;19929;-37
2022/10/17 18:31:54;;;;;;;;;;;17.50;99.90;;;;;;12556736;28;19951;-37
2022/10/17 18:37:56;;;;;;;;;;;17.50;99.90;;;;;;12550611;28;19925;-45
2022/10/17 18:43:58;;;;;;;;;;;17.50;99.90;;;;;;12552880;28;20210;-37
2022/10/17 18:49:59;;;;;;;;;;;17.40;99.90;;;;;;12558476;28;19936;-37
2022/10/17 18:56:02;;;;;;;;;;;17.30;99.90;;;;;;12545030;28;19929;-37
2022/10/17 19:02:04;;;;;;;;;;;17.30;99.90;;;;;;12553932;28;19928;-37
2022/10/17 19:08:07;;;;;;;;;;;17.20;99.90;;;;;;12545749;28;20016;-37
2022/10/17 19:14:11;;;;;;;;;;;17.10;99.90;;;;;;12550059;28;19925;-37
2022/10/17 19:20:14;;;;;;;;;;;17.10;99.90;;;;;;12560795;28;19924;-37
2022/10/17 19:26:17;;;;;;;;;;;17.10;99.90;;;;;;12560805;28;20046;-36
2022/10/17 19:32:19;;;;;;;;;;;17.10;99.90;;;;;;12565478;28;19924;-36
2022/10/17 19:38:23;;;;;;;;;;;17.00;99.90;;;;;;12552744;28;19924;-37
2022/10/17 19:44:25;;;;;;;;;;;16.90;99.90;;;;;;12546276;28;20063;-36
2022/10/17 19:50:27;;;;;;;;;;;16.90;99.90;;;;;;12556834;28;19997;-37
2022/10/17 19:56:30;;;;;;;;;;;16.90;99.90;;;;;;12543180;28;19931;-36
2022/10/17 20:02:32;;;;;;;;;;;16.90;99.90;;;;;;12555237;28;19929;-37
2022/10/17 20:08:34;;;;;;;;;;;17.00;99.90;;;;;;12553648;28;19955;-37
2022/10/17 20:14:36;;;;;;;;;;;16.90;99.90;;;;;;12557454;28;19925;-37
2022/10/17 20:20:41;;;;;;;;;;;16.80;99.90;;;;;;12548417;28;19987;-37
2022/10/17 20:26:43;;;;;;;;;;;16.80;99.90;;;;;;12556757;28;19929;-36
2022/10/17 20:32:45;;;;;;;;;;;16.80;99.90;;;;;;12555981;28;19929;-36
2022/10/17 20:38:47;;;;;;;;;;;16.80;99.90;;;;;;12553198;28;19929;-37
2022/10/17 20:44:49;;;;;;;;;;;16.70;99.90;;;;;;12547420;28;19932;-37
2022/10/17 20:50:51;;;;;;;;;;;16.70;99.90;;;;;;12544519;28;19933;-36
2022/10/17 20:56:53;;;;;;;;;;;16.70;99.90;;;;;;12535945;28;19929;-36
2022/10/17 21:02:57;;;;;;;;;;;16.70;99.90;;;;;;12555701;28;20289;-37
2022/10/17 21:08:59;;;;;;;;;;;16.60;99.90;;;;;;12542345;28;19978;-37
2022/10/17 21:15:01;;;;;;;;;;;16.60;99.90;;;;;;12547523;28;19936;-36
2022/10/17 21:21:09;;;;;;;;;;;16.50;99.90;;;;;;12543337;28;19925;-37
2022/10/17 21:27:13;;;;;;;;;;;16.60;99.90;;;;;;12545193;28;19933;-37
2022/10/17 21:33:15;;;;;;;;;;;16.60;99.90;;;;;;12543716;28;19931;-37
2022/10/17 21:39:16;;;;;;;;;;;16.50;99.90;;;;;;12550422;28;19925;-37
2022/10/17 21:45:20;;;;;;;;;;;16.50;99.90;;;;;;12564386;28;19931;-37
2022/10/17 21:51:26;;;;;;;;;;;16.50;99.90;;;;;;12573152;28;20292;-36
2022/10/17 21:57:29;;;;;;;;;;;16.50;99.90;;;;;;12569238;28;20387;-36
2022/10/17 22:03:32;;;;;;;;;;;16.50;99.90;;;;;;12560122;28;19924;-36
2022/10/17 22:09:33;;;;;;;;;;;16.50;99.90;;;;;;12567438;28;19925;-37
2022/10/17 22:15:35;;;;;;;;;;;16.40;99.90;;;;;;12567059;28;20361;-37
2022/10/17 22:21:37;;;;;;;;;;;16.40;99.90;;;;;;12569680;28;19925;-37
2022/10/17 22:27:39;;;;;;;;;;;16.40;99.90;;;;;;12561066;28;20061;-37
2022/10/17 22:33:40;;;;;;;;;;;16.30;99.90;;;;;;12562522;28;19925;-37
2022/10/17 22:39:42;;;;;;;;;;;16.40;99.90;;;;;;12565104;28;19925;-37
2022/10/17 22:45:54;;;;;;;;;;;16.20;99.90;;;;;;12573646;28;19940;-36
2022/10/17 22:51:56;;;;;;;;;;;16.10;99.90;;;;;;12558349;28;19928;-37
2022/10/17 22:57:57;;;;;;;;;;;16.10;99.90;;;;;;12555412;28;19931;-37
2022/10/17 23:03:59;;;;;;;;;;;16.00;99.90;;;;;;12554316;28;19971;-37
2022/10/17 23:10:02;;;;;;;;;;;16.10;99.90;;;;;;12549277;28;19929;-37
2022/10/17 23:16:04;;;;;;;;;;;16.10;99.90;;;;;;12548344;28;20045;-37
2022/10/17 23:22:06;;;;;;;;;;;16.10;99.90;;;;;;12552986;28;19925;-37
2022/10/17 23:28:08;;;;;;;;;;;16.10;99.90;;;;;;12556839;28;20288;-37
2022/10/17 23:34:10;;;;;;;;;;;16.20;99.90;;;;;;12545687;28;19925;-37
2022/10/17 23:40:12;;;;;;;;;;;16.10;99.90;;;;;;12555124;28;19940;-36
2022/10/17 23:46:14;;;;;;;;;;;16.10;99.90;;;;;;12550376;28;20300;-37
2022/10/17 23:52:16;;;;;;;;;;;16.00;99.90;;;;;;12560735;28;20294;-37
2022/10/17 23:58:18;;;;;;;;;;;16.00;99.90;;;;;;12559550;28;20750;-37
